createdAt,value
2018-07-07T00:01:57.106Z,101773.61
2018-07-07T00:04:26.255Z,101774.47
2018-07-07T00:06:55.334Z,101775.17
2018-07-07T00:09:24.438Z,101776.86
2018-07-07T00:11:53.521Z,101777.61
2018-07-07T00:14:22.596Z,101777.45
2018-07-07T00:16:51.661Z,101769.09
2018-07-07T00:19:20.758Z,101770.19
2018-07-07T00:21:49.852Z,101773.93
2018-07-07T00:24:18.958Z,101767.54
2018-07-07T00:26:48.082Z,101765.75
2018-07-07T00:29:17.179Z,101779.25
2018-07-07T00:31:46.261Z,101774.30
2018-07-07T00:34:15.350Z,101775.75
2018-07-07T00:36:44.517Z,101781.73
2018-07-07T00:39:13.568Z,101775.92
2018-07-07T00:41:42.918Z,101771.45
2018-07-07T00:44:11.969Z,101782.59
2018-07-07T00:46:41.033Z,101778.31
2018-07-07T00:49:10.087Z,101782.20
2018-07-07T00:51:39.173Z,101779.63
2018-07-07T00:54:08.348Z,101773.84
2018-07-07T00:56:37.458Z,101778.54
2018-07-07T00:59:06.520Z,101780.03
2018-07-07T01:01:35.842Z,101783.98
2018-07-07T01:04:04.895Z,101790.69
2018-07-07T01:06:34.229Z,101790.94
2018-07-07T01:09:03.399Z,101795.40
2018-07-07T01:11:32.497Z,101792.67
2018-07-07T01:14:01.597Z,101793.15
2018-07-07T01:16:30.692Z,101790.11
2018-07-07T01:18:59.763Z,101792.89
2018-07-07T01:21:28.863Z,101796.63
2018-07-07T01:23:57.910Z,101789.92
2018-07-07T01:26:27.197Z,101795.06
2018-07-07T01:28:56.283Z,101790.42
2018-07-07T01:31:25.315Z,101793.00
2018-07-07T01:33:54.413Z,101796.59
2018-07-07T01:36:23.581Z,101792.61
2018-07-07T01:38:52.694Z,101792.03
2018-07-07T01:41:21.815Z,101785.98
2018-07-07T01:43:50.882Z,101786.81
2018-07-07T01:46:19.973Z,101784.13
2018-07-07T01:48:49.040Z,101778.73
2018-07-07T01:51:18.154Z,101785.59
2018-07-07T01:53:47.229Z,101779.86
2018-07-07T01:56:16.328Z,101783.02
2018-07-07T01:58:45.422Z,101788.12
2018-07-07T02:01:14.533Z,101787.86
2018-07-07T02:03:43.586Z,101778.98
2018-07-07T02:06:12.650Z,101782.86
2018-07-07T02:08:41.784Z,101786.56
2018-07-07T02:11:10.855Z,101783.73
2018-07-07T02:13:40.045Z,101780.77
2018-07-07T02:16:09.264Z,101777.98
2018-07-07T02:18:38.373Z,101779.53
2018-07-07T02:21:07.824Z,101785.50
2018-07-07T02:23:36.932Z,101777.66
2018-07-07T02:26:06.377Z,101776.63
2018-07-07T02:28:35.477Z,101780.14
2018-07-07T02:31:04.526Z,101784.99
2018-07-07T02:33:33.706Z,101776.84
2018-07-07T02:36:02.805Z,101781.80
2018-07-07T02:38:31.949Z,101787.73
2018-07-07T02:41:01.065Z,101784.52
2018-07-07T02:43:30.169Z,101776.91
2018-07-07T02:45:59.283Z,101784.48
2018-07-07T02:48:28.368Z,101785.61
2018-07-07T02:50:57.421Z,101787.31
2018-07-07T02:53:26.570Z,101792.23
2018-07-07T02:55:55.650Z,101787.56
2018-07-07T02:58:24.716Z,101786.84
2018-07-07T03:00:54.248Z,101793.11
2018-07-07T03:03:23.922Z,101777.28
2018-07-07T03:05:53.081Z,101785.71
2018-07-07T03:08:22.185Z,101785.82
2018-07-07T03:10:51.282Z,101785.53
2018-07-07T03:13:20.737Z,101791.86
2018-07-07T03:15:49.872Z,101789.55
2018-07-07T03:18:18.993Z,101786.00
2018-07-07T03:20:48.062Z,101786.84
2018-07-07T03:23:17.236Z,101786.33
2018-07-07T03:25:46.381Z,101793.32
2018-07-07T03:28:15.477Z,101791.33
2018-07-07T03:30:44.582Z,101792.20
2018-07-07T03:33:13.690Z,101790.75
2018-07-07T03:35:42.760Z,101799.16
2018-07-07T03:38:12.966Z,101804.41
2018-07-07T03:40:42.151Z,101804.62
2018-07-07T03:43:11.286Z,101806.06
2018-07-07T03:45:40.390Z,101810.08
2018-07-07T03:48:09.555Z,101804.98
2018-07-07T03:50:38.650Z,101815.98
2018-07-07T03:53:14.173Z,101809.77
2018-07-07T03:55:43.241Z,101804.66
2018-07-07T03:58:12.365Z,101814.04
2018-07-07T04:00:41.534Z,101811.68
2018-07-07T04:03:10.640Z,101807.41
2018-07-07T04:05:39.710Z,101811.34
2018-07-07T04:08:08.820Z,101811.66
2018-07-07T04:10:37.909Z,101822.22
2018-07-07T04:13:07.458Z,101825.48
2018-07-07T04:15:36.560Z,101824.92
2018-07-07T04:18:05.961Z,101830.99
2018-07-07T04:20:35.051Z,101826.05
2018-07-07T04:23:04.121Z,101834.09
2018-07-07T04:25:33.210Z,101835.17
2018-07-07T04:31:47.016Z,101836.49
2018-07-07T04:34:16.109Z,101845.77
2018-07-07T04:36:45.176Z,101841.48
2018-07-07T04:39:14.289Z,101835.77
2018-07-07T04:41:43.377Z,101839.95
2018-07-07T04:44:12.487Z,101846.54
2018-07-07T04:46:41.608Z,101847.80
2018-07-07T04:49:10.702Z,101847.52
2018-07-07T04:51:39.806Z,101845.60
2018-07-07T04:54:08.931Z,101843.88
2018-07-07T04:56:37.982Z,101849.22
2018-07-07T04:59:07.171Z,101852.97
2018-07-07T05:01:36.324Z,101852.59
2018-07-07T05:04:05.391Z,101857.34
2018-07-07T05:06:34.566Z,101855.17
2018-07-07T05:09:04.269Z,101856.41
2018-07-07T05:11:33.424Z,101869.23
2018-07-07T05:14:02.495Z,101858.79
2018-07-07T05:16:31.739Z,101861.67
2018-07-07T05:19:17.837Z,101867.52
2018-07-07T05:21:49.528Z,101871.50
2018-07-07T05:24:18.661Z,101870.63
2018-07-07T05:26:47.790Z,101872.86
2018-07-07T05:29:16.898Z,101873.50
2018-07-07T05:31:46.025Z,101873.39
2018-07-07T05:34:15.125Z,101871.69
2018-07-07T05:36:44.265Z,101875.59
2018-07-07T05:39:13.410Z,101878.77
2018-07-07T05:41:42.543Z,101871.34
2018-07-07T05:44:11.672Z,101874.88
2018-07-07T05:46:51.560Z,101876.41
2018-07-07T05:49:20.651Z,101868.73
2018-07-07T05:51:49.838Z,101882.71
2018-07-07T05:54:18.933Z,101878.69
2018-07-07T05:56:48.021Z,101885.37
2018-07-07T05:59:17.122Z,101879.50
2018-07-07T06:01:46.253Z,101878.88
2018-07-07T06:04:15.620Z,101890.44
2018-07-07T06:06:44.741Z,101891.88
2018-07-07T06:09:13.945Z,101894.34
2018-07-07T06:11:43.057Z,101895.11
2018-07-07T06:14:12.200Z,101882.18
2018-07-07T06:16:41.313Z,101890.87
2018-07-07T06:19:10.710Z,101894.69
2018-07-07T06:21:39.810Z,101894.80
2018-07-07T06:24:08.962Z,101895.88
2018-07-07T06:26:38.149Z,101897.98
2018-07-07T06:29:07.579Z,101905.94
2018-07-07T06:31:36.671Z,101906.70
2018-07-07T06:34:05.846Z,101908.45
2018-07-07T06:36:34.964Z,101903.22
2018-07-07T06:39:04.886Z,101898.88
2018-07-07T06:41:40.453Z,101898.12
2018-07-07T06:44:09.567Z,101897.62
2018-07-07T06:46:38.687Z,101903.12
2018-07-07T06:49:07.832Z,101901.32
2018-07-07T06:51:36.961Z,101902.73
2018-07-07T06:54:06.193Z,101910.53
2018-07-07T06:56:35.322Z,101904.50
2018-07-07T06:59:04.387Z,101905.45
2018-07-07T07:01:33.516Z,101915.98
2018-07-07T07:04:02.583Z,101908.70
2018-07-07T07:06:31.753Z,101921.47
2018-07-07T07:09:00.907Z,101911.37
2018-07-07T07:11:30.012Z,101911.20
2018-07-07T07:14:04.780Z,101908.89
2018-07-07T07:16:33.939Z,101915.59
2018-07-07T07:19:03.074Z,101910.11
2018-07-07T07:21:32.244Z,101906.20
2018-07-07T07:24:01.562Z,101912.33
2018-07-07T07:26:30.653Z,101914.66
2018-07-07T07:28:59.729Z,101915.94
2018-07-07T07:31:28.866Z,101922.48
2018-07-07T07:33:57.955Z,101930.80
2018-07-07T07:36:43.552Z,101926.66
2018-07-07T07:39:12.824Z,101922.05
2018-07-07T07:41:42.191Z,101927.31
2018-07-07T07:44:11.700Z,101926.84
2018-07-07T07:46:40.838Z,101918.78
2018-07-07T07:49:10.425Z,101923.70
2018-07-07T07:51:39.511Z,101918.63
2018-07-07T07:54:08.627Z,101921.19
2018-07-07T07:56:37.699Z,101919.73
2018-07-07T07:59:06.930Z,101921.80
2018-07-07T08:01:36.012Z,101922.44
2018-07-07T08:04:05.305Z,101929.80
2018-07-07T08:06:34.410Z,101928.58
2018-07-07T08:09:03.689Z,101926.05
2018-07-07T08:11:32.756Z,101925.14
2018-07-07T08:14:02.802Z,101921.98
2018-07-07T08:16:31.895Z,101923.98
2018-07-07T08:19:01.034Z,101922.88
2018-07-07T08:21:30.185Z,101925.48
2018-07-07T08:23:59.233Z,101925.44
2018-07-07T08:26:28.313Z,101923.75
2018-07-07T08:28:57.423Z,101930.03
2018-07-07T08:31:26.520Z,101925.09
2018-07-07T08:33:55.616Z,101930.03
2018-07-07T08:36:24.730Z,101935.65
2018-07-07T08:38:53.829Z,101927.97
2018-07-07T08:41:22.949Z,101928.72
2018-07-07T08:43:52.030Z,101923.84
2018-07-07T08:46:21.241Z,101921.42
2018-07-07T08:48:50.299Z,101921.98
2018-07-07T08:51:19.398Z,101929.92
2018-07-07T08:53:48.730Z,101929.17
2018-07-07T08:56:17.831Z,101920.39
2018-07-07T08:58:46.920Z,101922.58
2018-07-07T09:01:16.054Z,101919.40
2018-07-07T09:03:45.144Z,101920.52
2018-07-07T09:06:14.230Z,101914.63
2018-07-07T09:08:43.292Z,101918.93
2018-07-07T09:11:12.774Z,101925.53
2018-07-07T09:13:42.169Z,101926.27
2018-07-07T09:16:11.810Z,101919.40
2018-07-07T09:18:40.959Z,101920.39
2018-07-07T09:21:10.036Z,101918.56
2018-07-07T09:23:39.119Z,101912.08
2018-07-07T09:26:08.190Z,101915.25
2018-07-07T09:28:37.300Z,101922.84
2018-07-07T09:31:07.232Z,101919.03
2018-07-07T09:33:36.284Z,101917.45
2018-07-07T09:36:05.630Z,101918.45
2018-07-07T09:38:34.803Z,101919.65
2018-07-07T09:41:03.952Z,101910.95
2018-07-07T09:43:33.150Z,101919.40
2018-07-07T09:46:02.271Z,101921.00
2018-07-07T09:48:31.455Z,101919.77
2018-07-07T09:51:00.581Z,101910.11
2018-07-07T09:53:29.733Z,101902.77
2018-07-07T09:55:58.820Z,101917.94
2018-07-07T09:58:28.118Z,101912.44
2018-07-07T10:00:57.194Z,101902.39
2018-07-07T10:03:26.262Z,101911.32
2018-07-07T10:05:55.346Z,101915.73
2018-07-07T10:08:24.432Z,101916.32
2018-07-07T10:10:53.530Z,101907.29
2018-07-07T10:13:22.623Z,101909.94
2018-07-07T10:15:51.716Z,101911.64
2018-07-07T10:18:20.823Z,101916.32
2018-07-07T10:20:49.880Z,101906.53
2018-07-07T10:23:18.968Z,101901.77
2018-07-07T10:25:48.046Z,101907.14
2018-07-07T10:28:17.087Z,101902.85
2018-07-07T10:30:46.160Z,101901.63
2018-07-07T10:33:15.236Z,101901.63
2018-07-07T10:35:44.398Z,101902.08
2018-07-07T10:38:13.604Z,101910.45
2018-07-07T10:40:42.794Z,101896.91
2018-07-07T10:43:11.872Z,101898.61
2018-07-07T10:45:41.077Z,101899.70
2018-07-07T10:48:10.107Z,101910.80
2018-07-07T10:50:39.201Z,101906.00
2018-07-07T10:53:08.383Z,101908.80
2018-07-07T10:55:37.481Z,101909.31
2018-07-07T10:58:06.690Z,101907.34
2018-07-07T11:00:35.730Z,101906.09
2018-07-07T11:03:04.789Z,101901.55
2018-07-07T11:05:33.877Z,101895.89
2018-07-07T11:08:03.254Z,101899.59
2018-07-07T11:10:32.319Z,101901.41
2018-07-07T11:13:04.353Z,101887.41
2018-07-07T11:15:33.445Z,101895.47
2018-07-07T11:18:02.500Z,101893.03
2018-07-07T11:20:31.547Z,101890.47
2018-07-07T11:23:00.628Z,101893.70
2018-07-07T11:25:29.688Z,101889.03
2018-07-07T11:27:58.725Z,101890.13
2018-07-07T11:30:27.832Z,101887.97
2018-07-07T11:32:56.880Z,101889.30
2018-07-07T11:35:25.990Z,101886.33
2018-07-07T11:37:55.059Z,101882.69
2018-07-07T11:40:25.122Z,101891.19
2018-07-07T11:42:54.392Z,101886.95
2018-07-07T11:45:23.454Z,101894.03
2018-07-07T11:47:52.530Z,101884.21
2018-07-07T11:50:21.676Z,101882.11
2018-07-07T11:52:50.731Z,101884.45
2018-07-07T11:55:19.777Z,101883.00
2018-07-07T11:57:48.859Z,101886.55
2018-07-07T12:00:17.936Z,101883.42
2018-07-07T12:02:46.981Z,101876.56
2018-07-07T12:05:16.094Z,101882.25
2018-07-07T12:07:45.133Z,101889.85
2018-07-07T12:10:14.228Z,101879.39
2018-07-07T12:12:43.547Z,101874.46
2018-07-07T12:15:12.606Z,101888.43
2018-07-07T12:17:41.671Z,101877.90
2018-07-07T12:20:10.745Z,101871.77
2018-07-07T12:22:39.809Z,101870.45
2018-07-07T12:25:08.876Z,101870.52
2018-07-07T12:27:38.051Z,101876.22
2018-07-07T12:30:07.169Z,101881.29
2018-07-07T12:32:36.359Z,101866.53
2018-07-07T12:35:05.432Z,101868.61
2018-07-07T12:37:34.490Z,101871.59
2018-07-07T12:40:03.667Z,101862.38
2018-07-07T12:42:32.753Z,101871.00
2018-07-07T12:45:01.851Z,101864.17
2018-07-07T12:47:31.089Z,101861.83
2018-07-07T12:50:00.134Z,101867.02
2018-07-07T12:52:30.255Z,101854.23
2018-07-07T12:54:59.317Z,101852.42
2018-07-07T12:57:28.459Z,101854.48
2018-07-07T12:59:57.536Z,101860.23
2018-07-07T13:02:26.618Z,101862.47
2018-07-07T13:04:55.702Z,101854.97
2018-07-07T13:07:24.811Z,101864.09
2018-07-07T13:09:53.920Z,101858.02
2018-07-07T13:12:22.997Z,101850.69
2018-07-07T13:14:52.136Z,101851.63
2018-07-07T13:17:21.316Z,101854.54
2018-07-07T13:19:50.414Z,101855.28
2018-07-07T13:22:19.470Z,101854.52
2018-07-07T13:24:48.542Z,101862.84
2018-07-07T13:27:17.627Z,101864.58
2018-07-07T13:29:46.710Z,101868.63
2018-07-07T13:32:15.816Z,101858.41
2018-07-07T13:34:44.907Z,101867.59
2018-07-07T13:37:14.023Z,101849.27
2018-07-07T13:39:43.711Z,101857.62
2018-07-07T13:42:13.322Z,101844.63
2018-07-07T13:44:48.891Z,101854.52
2018-07-07T13:47:17.973Z,101867.14
2018-07-07T13:49:47.073Z,101866.77
2018-07-07T13:52:16.123Z,101857.91
2018-07-07T13:54:45.259Z,101854.92
2018-07-07T13:57:14.339Z,101859.59
2018-07-07T13:59:43.451Z,101855.27
2018-07-07T14:02:12.594Z,101862.30
2018-07-07T14:04:41.703Z,101868.28
2018-07-07T14:07:10.788Z,101867.61
2018-07-07T14:09:39.913Z,101857.85
2018-07-07T14:12:09.053Z,101861.30
2018-07-07T14:14:38.121Z,101858.19
2018-07-07T14:17:07.298Z,101859.29
2018-07-07T14:19:36.339Z,101838.97
2018-07-07T14:22:05.506Z,101858.88
2018-07-07T14:24:34.585Z,101863.54
2018-07-07T14:27:03.705Z,101855.86
2018-07-07T14:29:32.797Z,101857.89
2018-07-07T14:32:01.941Z,101849.76
2018-07-07T14:34:31.084Z,101866.27
2018-07-07T14:37:00.135Z,101854.34
2018-07-07T14:40:04.048Z,101845.73
2018-07-07T14:42:45.569Z,101853.05
2018-07-07T14:45:30.974Z,101861.45
2018-07-07T14:48:02.632Z,101852.90
2018-07-07T14:50:31.728Z,101848.99
2018-07-07T14:53:00.766Z,101843.70
2018-07-07T14:55:30.101Z,101846.61
2018-07-07T14:57:59.208Z,101851.06
2018-07-07T15:00:29.018Z,101837.34
2018-07-07T15:02:58.572Z,101827.80
2018-07-07T15:05:27.636Z,101830.02
2018-07-07T15:07:56.844Z,101844.13
2018-07-07T15:10:26.130Z,101828.98
2018-07-07T15:12:55.230Z,101833.58
2018-07-07T15:15:24.324Z,101840.37
2018-07-07T15:17:53.413Z,101831.53
2018-07-07T15:20:22.536Z,101831.21
2018-07-07T15:22:51.644Z,101838.86
2018-07-07T15:25:20.715Z,101843.73
2018-07-07T15:27:49.820Z,101831.63
2018-07-07T15:30:18.903Z,101830.66
2018-07-07T15:32:47.989Z,101827.44
2018-07-07T15:35:17.115Z,101822.48
2018-07-07T15:37:46.208Z,101828.98
2018-07-07T15:40:15.321Z,101819.81
2018-07-07T15:42:44.432Z,101817.41
2018-07-07T15:45:13.506Z,101813.63
2018-07-07T15:47:42.564Z,101821.55
2018-07-07T15:50:11.679Z,101817.59
2018-07-07T15:52:40.744Z,101819.10
2018-07-07T15:55:09.846Z,101808.64
2018-07-07T15:57:38.977Z,101815.52
2018-07-07T16:00:09.850Z,101810.13
2018-07-07T16:02:38.918Z,101800.83
2018-07-07T16:05:08.007Z,101804.42
2018-07-07T16:07:37.050Z,101805.86
2018-07-07T16:10:06.426Z,101798.67
2018-07-07T16:12:35.639Z,101785.47
2018-07-07T16:15:04.811Z,101798.06
2018-07-07T16:17:33.920Z,101791.67
2018-07-07T16:20:03.018Z,101803.24
2018-07-07T16:22:32.401Z,101797.70
2018-07-07T16:25:01.487Z,101792.86
2018-07-07T16:27:30.644Z,101786.34
2018-07-07T16:29:59.740Z,101787.30
2018-07-07T16:32:28.888Z,101794.02
2018-07-07T16:34:57.966Z,101801.00
2018-07-07T16:37:27.006Z,101791.71
2018-07-07T16:39:56.147Z,101786.69
2018-07-07T16:42:25.978Z,101788.20
2018-07-07T16:44:55.169Z,101792.33
2018-07-07T16:47:24.294Z,101800.03
2018-07-07T16:49:53.391Z,101794.27
2018-07-07T16:52:22.512Z,101792.05
2018-07-07T16:54:51.642Z,101786.02
2018-07-07T16:57:20.730Z,101787.42
2018-07-07T16:59:49.869Z,101780.70
2018-07-07T17:02:19.672Z,101786.13
2018-07-07T17:04:48.779Z,101781.37
2018-07-07T17:07:18.192Z,101784.30
2018-07-07T17:09:48.159Z,101784.22
2018-07-07T17:12:17.245Z,101783.73
2018-07-07T17:14:46.346Z,101781.15
2018-07-07T17:17:15.451Z,101788.44
2018-07-07T17:19:44.566Z,101790.69
2018-07-07T17:22:13.683Z,101779.94
2018-07-07T17:24:43.590Z,101790.20
2018-07-07T17:27:12.917Z,101777.18
2018-07-07T17:29:42.061Z,101792.70
2018-07-07T17:32:11.362Z,101792.11
2018-07-07T17:34:41.775Z,101793.10
2018-07-07T17:37:10.954Z,101790.61
2018-07-07T17:39:40.058Z,101793.41
2018-07-07T17:42:09.396Z,101798.96
2018-07-07T17:44:38.526Z,101793.13
2018-07-07T17:47:07.658Z,101797.03
2018-07-07T17:49:37.432Z,101792.12
2018-07-07T17:52:06.893Z,101796.84
2018-07-07T17:54:36.007Z,101796.26
2018-07-07T17:57:05.116Z,101800.59
2018-07-07T17:59:34.242Z,101798.81
2018-07-07T18:02:03.385Z,101798.89
2018-07-07T18:04:32.513Z,101803.30
2018-07-07T18:07:01.560Z,101794.46
2018-07-07T18:09:30.668Z,101793.49
2018-07-07T18:11:59.791Z,101797.17
2018-07-07T18:14:28.891Z,101794.61
2018-07-07T18:16:57.968Z,101804.25
2018-07-07T18:19:27.078Z,101805.10
2018-07-07T18:21:56.150Z,101806.20
2018-07-07T18:24:25.258Z,101801.00
2018-07-07T18:26:54.366Z,101803.47
2018-07-07T18:29:23.499Z,101801.05
2018-07-07T18:31:52.651Z,101803.09
2018-07-07T18:34:21.718Z,101806.63
2018-07-07T18:36:50.798Z,101802.88
2018-07-07T18:39:19.968Z,101805.96
2018-07-07T18:41:49.048Z,101802.57
2018-07-07T18:44:18.224Z,101809.86
2018-07-07T18:46:47.231Z,101814.16
2018-07-07T18:49:16.308Z,101810.38
2018-07-07T18:51:45.420Z,101814.27
2018-07-07T18:54:15.391Z,101810.80
2018-07-07T18:56:44.525Z,101803.37
2018-07-07T18:59:13.605Z,101809.92
2018-07-07T19:01:42.730Z,101811.00
2018-07-07T19:04:11.824Z,101808.38
2018-07-07T19:06:40.894Z,101818.56
2018-07-07T19:09:10.231Z,101809.67
2018-07-07T19:11:39.287Z,101808.81
2018-07-07T19:14:08.461Z,101814.25
2018-07-07T19:16:37.566Z,101815.00
2018-07-07T19:19:06.776Z,101813.09
2018-07-07T19:21:41.200Z,101814.83
2018-07-07T19:24:15.493Z,101813.97
2018-07-07T19:26:51.446Z,101814.10
2018-07-07T19:29:21.786Z,101823.36
2018-07-07T19:31:56.197Z,101825.31
2018-07-07T19:34:31.681Z,101821.18
2018-07-07T19:37:06.036Z,101824.03
2018-07-07T19:39:35.124Z,101821.82
2018-07-07T19:42:04.193Z,101830.77
2018-07-07T19:44:33.289Z,101831.38
2018-07-07T19:47:02.370Z,101832.72
2018-07-07T19:49:31.514Z,101836.81
2018-07-07T19:52:00.606Z,101833.02
2018-07-07T19:54:29.678Z,101835.73
2018-07-07T19:56:58.785Z,101837.42
2018-07-07T19:59:27.916Z,101839.75
2018-07-07T20:01:57.027Z,101843.42
2018-07-07T20:04:26.133Z,101839.14
2018-07-07T20:06:55.264Z,101834.88
2018-07-07T20:09:24.361Z,101847.71
2018-07-07T20:11:53.620Z,101841.35
2018-07-07T20:14:26.003Z,101834.23
2018-07-07T20:17:13.691Z,101842.66
2018-07-07T20:20:58.050Z,101839.86
2018-07-07T20:23:28.532Z,101843.29
2018-07-07T20:26:04.935Z,101842.79
2018-07-07T20:28:39.375Z,101842.64
2018-07-07T20:31:08.429Z,101841.42
2018-07-07T20:33:37.494Z,101838.72
2018-07-07T20:36:06.572Z,101846.91
2018-07-07T20:38:35.757Z,101849.12
2018-07-07T20:41:04.848Z,101845.44
2018-07-07T20:43:34.044Z,101849.24
2018-07-07T20:46:03.266Z,101848.38
2018-07-07T20:48:32.360Z,101851.39
2018-07-07T20:51:01.546Z,101848.58
2018-07-07T20:53:30.645Z,101849.33
2018-07-07T20:55:59.740Z,101851.91
2018-07-07T20:58:35.169Z,101854.31
2018-07-07T21:01:04.250Z,101853.72
2018-07-07T21:03:33.373Z,101860.33
2018-07-07T21:06:02.436Z,101853.33
2018-07-07T21:08:32.246Z,101850.87
2018-07-07T21:11:01.413Z,101851.95
2018-07-07T21:13:30.523Z,101853.65
2018-07-07T21:15:59.697Z,101853.38
2018-07-07T21:18:28.769Z,101855.55
2018-07-07T21:20:57.852Z,101850.64
2018-07-07T21:23:26.953Z,101853.21
2018-07-07T21:25:56.065Z,101855.97
2018-07-07T21:28:25.138Z,101850.72
2018-07-07T21:30:54.478Z,101855.25
2018-07-07T21:33:23.589Z,101853.68
2018-07-07T21:35:52.830Z,101856.20
2018-07-07T21:38:21.960Z,101863.79
2018-07-07T21:40:51.066Z,101863.31
2018-07-07T21:43:20.172Z,101857.77
2018-07-07T21:45:49.705Z,101859.81
2018-07-07T21:48:18.812Z,101853.56
2018-07-07T21:50:47.908Z,101861.33
2018-07-07T21:53:17.025Z,101860.33
2018-07-07T21:55:46.206Z,101861.20
2018-07-07T21:58:20.472Z,101863.72
2018-07-07T22:02:03.464Z,101856.58
2018-07-07T22:04:37.856Z,101866.56
2018-07-07T22:07:13.206Z,101853.31
2018-07-07T22:09:43.257Z,101864.38
2018-07-07T22:12:12.403Z,101867.01
2018-07-07T22:14:41.511Z,101866.53
2018-07-07T22:17:10.558Z,101871.54
2018-07-07T22:19:39.815Z,101867.70
2018-07-07T22:22:10.803Z,101875.03
2018-07-07T22:24:41.041Z,101875.59
2018-07-07T22:27:12.291Z,101875.81
2018-07-07T22:29:41.415Z,101877.95
2018-07-07T22:32:15.913Z,101869.73
2018-07-07T22:34:45.056Z,101875.59
2018-07-07T22:37:14.235Z,101882.13
2018-07-07T22:39:44.203Z,101878.80
2018-07-07T22:42:14.487Z,101870.06
2018-07-07T22:44:44.642Z,101886.66
2018-07-07T22:47:13.794Z,101881.30
2018-07-07T22:49:42.912Z,101890.14
2018-07-07T22:52:12.315Z,101891.27
2018-07-07T22:54:41.432Z,101891.80
2018-07-07T22:57:10.505Z,101883.91
2018-07-07T22:59:39.594Z,101887.70
2018-07-07T23:02:08.706Z,101890.28
2018-07-07T23:04:37.861Z,101882.02
2018-07-07T23:07:06.981Z,101889.77
2018-07-07T23:09:36.166Z,101885.30
2018-07-07T23:12:05.318Z,101885.73
2018-07-07T23:14:34.409Z,101885.17
2018-07-07T23:17:03.527Z,101890.83
2018-07-07T23:19:32.663Z,101889.52
2018-07-07T23:22:01.832Z,101891.06
2018-07-07T23:24:30.892Z,101882.58
2018-07-07T23:26:59.987Z,101888.36
2018-07-07T23:29:29.066Z,101884.94
2018-07-07T23:31:58.202Z,101885.02
2018-07-07T23:34:27.355Z,101878.48
2018-07-07T23:36:56.496Z,101883.69
2018-07-07T23:39:25.590Z,101887.34
2018-07-07T23:41:54.671Z,101881.05
2018-07-07T23:44:23.779Z,101880.09
2018-07-07T23:46:52.882Z,101879.72
2018-07-07T23:49:21.983Z,101878.59
2018-07-07T23:51:51.105Z,101885.38
2018-07-07T23:54:20.202Z,101882.34
2018-07-07T23:56:49.334Z,101885.30
2018-07-07T23:59:18.433Z,101892.45
